createdAt,value
2019-02-26T00:01:50.704Z,23.92
2019-02-26T00:04:20.872Z,32.90
2019-02-26T00:06:51.324Z,42.45
2019-02-26T00:09:22.373Z,36.95
2019-02-26T00:11:49.946Z,29.72
2019-02-26T00:14:20.382Z,33.18
2019-02-26T00:16:50.604Z,25.10
2019-02-26T00:19:18.887Z,25.85
2019-02-26T00:21:47.937Z,26.85
2019-02-26T00:24:17.777Z,31.33
2019-02-26T00:26:46.459Z,23.52
2019-02-26T00:29:15.044Z,24.92
2019-02-26T00:31:46.046Z,35.43
2019-02-26T00:34:16.859Z,27.73
2019-02-26T00:36:45.298Z,31.52
2019-02-26T00:39:14.091Z,30.82
2019-02-26T00:41:42.979Z,27.75
2019-02-26T00:44:11.879Z,31.48
2019-02-26T00:46:40.966Z,30.75
2019-02-26T00:49:09.749Z,34.95
2019-02-26T00:51:39.811Z,29.98
2019-02-26T00:54:08.953Z,31.50
2019-02-26T00:56:38.629Z,26.27
2019-02-26T00:59:07.897Z,35.38
2019-02-26T01:01:36.763Z,26.33
2019-02-26T01:04:05.452Z,40.98
2019-02-26T01:06:34.043Z,28.35
2019-02-26T01:09:05.538Z,35.78
2019-02-26T01:11:33.349Z,28.73
2019-02-26T01:14:01.832Z,30.45
2019-02-26T01:16:30.417Z,22.85
2019-02-26T01:18:58.895Z,21.85
2019-02-26T01:21:29.136Z,32.08
2019-02-26T01:23:59.601Z,37.08
2019-02-26T01:26:27.954Z,32.08
2019-02-26T01:28:58.408Z,37.78
2019-02-26T01:31:27.397Z,46.05
2019-02-26T01:33:57.430Z,37.17
2019-02-26T01:36:26.147Z,28.07
2019-02-26T01:38:54.625Z,30.52
2019-02-26T01:41:24.985Z,27.20
2019-02-26T01:43:53.535Z,32.98
2019-02-26T01:46:22.023Z,25.40
2019-02-26T01:48:50.598Z,36.17
2019-02-26T01:51:20.019Z,30.85
2019-02-26T01:53:51.424Z,41.25
2019-02-26T01:56:20.075Z,29.40
2019-02-26T01:58:56.378Z,33.23
2019-02-26T02:01:21.385Z,28.15
2019-02-26T02:03:52.734Z,30.10
2019-02-26T02:06:19.900Z,25.97
2019-02-26T02:08:50.463Z,35.63
2019-02-26T02:11:23.417Z,31.75
2019-02-26T02:13:49.030Z,33.38
2019-02-26T02:16:17.612Z,35.35
2019-02-26T02:18:48.162Z,29.87
2019-02-26T02:21:16.313Z,30.10
2019-02-26T02:23:46.424Z,28.60
2019-02-26T02:26:21.059Z,30.15
2019-02-26T02:28:49.643Z,31.90
2019-02-26T02:31:18.124Z,27.73
2019-02-26T02:33:46.707Z,67.37
2019-02-26T02:36:17.473Z,38.23
2019-02-26T02:38:45.616Z,44.30
2019-02-26T02:41:14.301Z,37.90
2019-02-26T02:43:42.779Z,35.08
2019-02-26T02:46:11.366Z,48.17
2019-02-26T02:48:40.807Z,46.85
2019-02-26T02:51:13.133Z,45.10
2019-02-26T02:53:39.680Z,34.85
2019-02-26T02:56:10.564Z,27.70
2019-02-26T02:58:39.000Z,37.65
2019-02-26T03:01:08.923Z,51.48
2019-02-26T03:03:37.386Z,49.60
2019-02-26T03:06:07.599Z,30.65
2019-02-26T03:08:36.092Z,31.25
2019-02-26T03:11:04.672Z,33.63
2019-02-26T03:13:33.360Z,33.83
2019-02-26T03:16:01.943Z,32.13
2019-02-26T03:18:30.524Z,41.33
2019-02-26T03:21:01.428Z,39.48
2019-02-26T03:23:30.842Z,32.28
2019-02-26T03:25:59.551Z,31.95
2019-02-26T03:28:28.238Z,30.70
2019-02-26T03:30:56.929Z,27.85
2019-02-26T03:33:25.544Z,30.23
2019-02-26T03:35:54.094Z,26.73
2019-02-26T03:38:23.496Z,31.77
2019-02-26T03:40:55.528Z,27.73
2019-02-26T03:43:23.324Z,26.00
2019-02-26T03:45:52.010Z,35.13
2019-02-26T03:48:20.699Z,30.62
2019-02-26T03:50:49.281Z,28.02
2019-02-26T03:53:17.866Z,35.70
2019-02-26T03:55:46.544Z,29.45
2019-02-26T03:58:15.131Z,30.45
2019-02-26T04:00:44.779Z,33.90
2019-02-26T04:03:15.143Z,32.45
2019-02-26T04:05:44.154Z,30.50
2019-02-26T04:08:12.633Z,29.52
2019-02-26T04:10:41.219Z,33.78
2019-02-26T04:13:09.801Z,32.67
2019-02-26T04:15:38.456Z,28.50
2019-02-26T04:18:08.606Z,36.38
2019-02-26T04:20:37.189Z,41.80
2019-02-26T04:23:05.774Z,34.55
2019-02-26T04:25:51.482Z,26.73
2019-02-26T04:28:27.243Z,27.17
2019-02-26T04:30:58.970Z,32.60
2019-02-26T04:34:05.351Z,32.75
2019-02-26T04:36:48.361Z,28.20
2019-02-26T04:39:36.824Z,32.42
2019-02-26T04:42:17.556Z,25.32
2019-02-26T04:45:07.941Z,33.25
2019-02-26T04:47:57.585Z,32.00
2019-02-26T04:50:28.689Z,31.90
2019-02-26T04:52:59.103Z,32.30
2019-02-26T04:55:28.997Z,30.72
2019-02-26T04:57:56.386Z,26.87
2019-02-26T05:00:29.303Z,34.35
2019-02-26T05:02:55.085Z,29.87
2019-02-26T05:05:25.873Z,38.10
2019-02-26T05:07:53.993Z,37.25
2019-02-26T05:10:24.319Z,38.85
2019-02-26T05:12:57.228Z,34.50
2019-02-26T05:15:26.506Z,28.57
2019-02-26T05:17:55.189Z,43.65
2019-02-26T05:20:23.773Z,38.00
2019-02-26T05:22:57.709Z,41.70
2019-02-26T05:25:25.344Z,41.10
2019-02-26T05:27:54.028Z,34.53
2019-02-26T05:30:22.787Z,38.78
2019-02-26T05:32:54.092Z,38.08
2019-02-26T05:35:23.404Z,36.45
2019-02-26T05:37:52.048Z,39.33
2019-02-26T05:40:22.244Z,44.03
2019-02-26T05:42:53.248Z,41.48
2019-02-26T05:45:23.374Z,43.50
2019-02-26T05:47:54.738Z,32.23
2019-02-26T05:50:21.926Z,36.88
2019-02-26T05:52:57.461Z,34.95
2019-02-26T05:55:23.070Z,37.03
2019-02-26T05:57:52.081Z,38.02
2019-02-26T06:00:22.645Z,42.45
2019-02-26T06:02:51.163Z,38.83
2019-02-26T06:05:26.945Z,38.78
2019-02-26T06:07:55.529Z,44.63
2019-02-26T06:10:25.171Z,36.48
2019-02-26T06:12:54.334Z,42.17
2019-02-26T06:15:28.789Z,43.98
2019-02-26T06:17:56.517Z,61.75
2019-02-26T06:20:26.701Z,48.40
2019-02-26T06:22:56.553Z,52.80
2019-02-26T06:25:26.267Z,36.90
2019-02-26T06:27:54.949Z,45.95
2019-02-26T06:30:23.544Z,37.80
2019-02-26T06:32:52.216Z,49.15
2019-02-26T06:35:21.094Z,45.98
2019-02-26T06:37:49.800Z,46.48
2019-02-26T06:40:18.484Z,44.38
2019-02-26T06:42:47.269Z,36.17
2019-02-26T06:45:16.714Z,57.13
2019-02-26T06:47:48.703Z,60.25
2019-02-26T06:50:18.557Z,59.90
2019-02-26T06:52:47.669Z,79.58
2019-02-26T06:55:16.377Z,45.75
2019-02-26T06:57:47.187Z,57.60
2019-02-26T07:00:21.271Z,48.00
2019-02-26T07:02:48.877Z,54.13
2019-02-26T07:05:17.382Z,64.27
2019-02-26T07:07:46.102Z,49.55
2019-02-26T07:10:18.471Z,62.55
2019-02-26T07:12:47.966Z,47.75
2019-02-26T07:15:16.152Z,43.80
2019-02-26T07:17:45.990Z,59.63
2019-02-26T07:20:14.954Z,44.83
2019-02-26T07:22:44.101Z,46.60
2019-02-26T07:25:15.955Z,46.08
2019-02-26T07:27:44.084Z,48.02
2019-02-26T07:30:12.861Z,42.58
2019-02-26T07:32:45.135Z,45.48
2019-02-26T07:35:13.767Z,50.70
2019-02-26T07:37:41.898Z,51.30
2019-02-26T07:40:13.767Z,48.75
2019-02-26T07:42:43.845Z,50.88
2019-02-26T07:45:15.320Z,46.70
2019-02-26T07:47:44.982Z,48.08
2019-02-26T07:50:14.629Z,51.35
2019-02-26T07:52:43.432Z,42.53
2019-02-26T07:55:14.441Z,46.25
2019-02-26T07:57:44.870Z,56.53
2019-02-26T08:00:21.366Z,46.75
2019-02-26T08:02:51.601Z,69.85
2019-02-26T08:05:21.299Z,53.75
2019-02-26T08:07:51.912Z,49.58
2019-02-26T08:10:20.410Z,58.68
2019-02-26T08:12:48.997Z,53.95
2019-02-26T08:15:17.579Z,59.90
2019-02-26T08:17:50.274Z,59.18
2019-02-26T08:20:16.387Z,64.53
2019-02-26T08:22:44.966Z,53.40
2019-02-26T08:25:13.943Z,65.50
2019-02-26T08:27:42.540Z,70.87
2019-02-26T08:30:17.746Z,67.50
2019-02-26T08:32:48.491Z,55.50
2019-02-26T08:35:27.796Z,63.95
2019-02-26T08:37:56.333Z,64.45
2019-02-26T08:40:24.941Z,50.48
2019-02-26T08:42:53.602Z,47.48
2019-02-26T08:45:23.555Z,43.33
2019-02-26T08:47:52.406Z,42.55
2019-02-26T08:50:20.889Z,83.00
2019-02-26T08:52:50.779Z,52.33
2019-02-26T08:55:22.255Z,42.43
2019-02-26T08:57:51.959Z,42.15
2019-02-26T09:00:20.946Z,53.83
2019-02-26T09:02:53.527Z,52.67
2019-02-26T09:05:20.587Z,50.03
2019-02-26T09:07:50.588Z,49.93
2019-02-26T09:10:22.658Z,38.45
2019-02-26T09:12:51.853Z,50.73
2019-02-26T09:15:20.775Z,39.83
2019-02-26T09:17:49.333Z,49.83
2019-02-26T09:20:20.067Z,41.18
2019-02-26T09:22:50.890Z,42.93
2019-02-26T09:25:21.062Z,49.25
2019-02-26T09:27:49.411Z,38.48
2019-02-26T09:30:25.560Z,37.80
2019-02-26T09:32:54.352Z,45.10
2019-02-26T09:35:28.133Z,47.85
2019-02-26T09:37:57.757Z,39.58
2019-02-26T09:40:26.535Z,42.13
2019-02-26T09:42:57.250Z,36.80
2019-02-26T09:45:29.779Z,48.68
2019-02-26T09:47:58.097Z,39.03
2019-02-26T09:50:26.925Z,37.78
2019-02-26T09:52:58.179Z,37.20
2019-02-26T09:55:26.038Z,42.53
2019-02-26T09:57:54.620Z,24.87
2019-02-26T10:00:26.997Z,23.67
2019-02-26T10:02:53.934Z,25.05
2019-02-26T10:05:22.554Z,24.32
2019-02-26T10:07:53.914Z,19.62
2019-02-26T10:10:22.295Z,28.65
2019-02-26T10:12:53.624Z,20.60
2019-02-26T10:15:21.051Z,24.35
2019-02-26T10:17:49.861Z,22.90
2019-02-26T10:20:27.928Z,22.32
2019-02-26T10:22:57.228Z,18.75
2019-02-26T10:25:26.388Z,25.52
2019-02-26T10:27:54.308Z,20.68
2019-02-26T10:30:22.894Z,17.17
2019-02-26T10:32:51.466Z,20.50
2019-02-26T10:35:32.541Z,33.98
2019-02-26T10:38:05.146Z,27.15
2019-02-26T10:40:35.497Z,31.60
2019-02-26T10:43:01.788Z,20.12
2019-02-26T10:45:36.277Z,14.38
2019-02-26T10:48:01.766Z,19.57
2019-02-26T10:50:31.898Z,18.95
2019-02-26T10:53:07.108Z,15.78
2019-02-26T10:55:38.178Z,19.07
2019-02-26T10:58:06.834Z,18.05
2019-02-26T11:00:34.622Z,11.78
2019-02-26T11:03:01.984Z,18.73
2019-02-26T11:05:30.502Z,14.40
2019-02-26T11:08:02.235Z,19.50
2019-02-26T11:10:29.426Z,15.78
2019-02-26T11:12:59.536Z,20.12
2019-02-26T11:15:31.039Z,24.10
2019-02-26T11:17:58.585Z,21.20
2019-02-26T11:20:30.052Z,26.40
2019-02-26T11:22:57.452Z,15.43
2019-02-26T11:25:27.380Z,19.80
2019-02-26T11:27:56.255Z,20.90
2019-02-26T11:30:29.213Z,21.93
2019-02-26T11:32:59.185Z,15.72
2019-02-26T11:35:27.450Z,14.13
2019-02-26T11:37:57.829Z,14.20
2019-02-26T11:40:29.645Z,16.32
2019-02-26T11:42:59.928Z,20.37
2019-02-26T11:45:27.919Z,14.63
2019-02-26T11:47:57.974Z,14.13
2019-02-26T11:50:28.495Z,14.80
2019-02-26T11:52:57.637Z,22.13
2019-02-26T11:55:28.515Z,23.67
2019-02-26T11:57:56.356Z,21.23
2019-02-26T12:00:34.196Z,78.95
2019-02-26T12:03:01.406Z,222.48
2019-02-26T12:05:33.437Z,169.60
2019-02-26T12:08:00.587Z,24.75
2019-02-26T12:10:31.827Z,104.40
2019-02-26T12:13:02.065Z,83.03
2019-02-26T12:15:30.803Z,157.25
2019-02-26T12:18:00.173Z,304.70
2019-02-26T12:20:29.089Z,166.65
2019-02-26T12:22:57.758Z,77.58
2019-02-26T12:25:26.333Z,29.82
2019-02-26T12:27:54.922Z,24.20
2019-02-26T12:30:24.768Z,14.80
2019-02-26T12:32:55.129Z,15.10
2019-02-26T12:35:23.743Z,18.15
2019-02-26T12:37:53.869Z,16.95
2019-02-26T12:40:25.329Z,20.30
2019-02-26T12:42:52.770Z,19.23
2019-02-26T12:45:22.721Z,30.90
2019-02-26T12:50:26.601Z,24.47
2019-02-26T12:52:53.893Z,22.75
2019-02-26T12:55:28.925Z,19.80
2019-02-26T12:57:56.486Z,17.55
2019-02-26T13:00:24.541Z,15.13
2019-02-26T13:02:53.208Z,17.12
2019-02-26T13:05:22.934Z,16.42
2019-02-26T13:07:51.964Z,30.40
2019-02-26T13:10:26.628Z,22.13
2019-02-26T13:13:00.183Z,17.52
2019-02-26T13:15:25.444Z,16.55
2019-02-26T13:17:54.676Z,19.75
2019-02-26T13:20:27.453Z,17.65
2019-02-26T13:22:56.958Z,18.52
2019-02-26T13:25:26.893Z,13.22
2019-02-26T13:27:55.646Z,17.05
2019-02-26T13:30:25.433Z,9.83
2019-02-26T13:32:58.038Z,9.88
2019-02-26T13:35:24.351Z,19.83
2019-02-26T13:37:55.389Z,14.25
2019-02-26T13:45:24.493Z,13.98
2019-02-26T13:48:00.712Z,11.35
2019-02-26T13:50:26.609Z,11.40
2019-02-26T13:52:55.288Z,12.13
2019-02-26T13:55:24.076Z,12.20
2019-02-26T13:57:52.867Z,9.18
2019-02-26T14:00:26.397Z,14.15
2019-02-26T14:02:51.772Z,11.53
2019-02-26T14:05:20.356Z,13.98
2019-02-26T14:07:48.945Z,12.43
2019-02-26T14:10:24.690Z,5.47
2019-02-26T14:12:53.378Z,6.08
2019-02-26T14:15:28.003Z,9.85
2019-02-26T14:17:56.584Z,14.55
2019-02-26T14:20:25.160Z,9.65
2019-02-26T14:22:53.661Z,15.65
2019-02-26T14:25:22.233Z,14.80
2019-02-26T14:27:50.940Z,11.22
2019-02-26T14:30:21.757Z,11.00
2019-02-26T14:32:50.350Z,7.33
2019-02-26T14:35:18.921Z,9.13
2019-02-26T14:38:00.138Z,15.48
2019-02-26T14:40:29.972Z,9.05
2019-02-26T14:42:58.703Z,8.80
2019-02-26T14:45:28.003Z,9.40
2019-02-26T14:47:56.595Z,13.10
2019-02-26T14:50:26.352Z,13.40
2019-02-26T14:52:55.390Z,10.65
2019-02-26T14:55:23.974Z,9.58
2019-02-26T14:57:52.561Z,7.95
2019-02-26T15:00:32.199Z,11.10
2019-02-26T15:03:00.789Z,12.23
2019-02-26T15:05:30.599Z,6.50
2019-02-26T15:08:00.981Z,9.88
2019-02-26T15:10:29.713Z,9.83
2019-02-26T15:12:58.393Z,6.37
2019-02-26T15:15:26.983Z,6.78
2019-02-26T15:17:55.562Z,8.73
2019-02-26T15:20:25.254Z,8.38
2019-02-26T15:22:53.760Z,11.68
2019-02-26T15:25:25.712Z,11.75
2019-02-26T15:27:54.297Z,8.98
2019-02-26T15:30:23.172Z,6.28
2019-02-26T15:32:51.763Z,6.55
2019-02-26T15:35:20.386Z,8.25
2019-02-26T15:37:49.129Z,6.87
2019-02-26T15:40:20.729Z,11.78
2019-02-26T15:42:52.458Z,8.38
2019-02-26T15:45:29.844Z,7.85
2019-02-26T15:47:58.631Z,5.87
2019-02-26T15:50:27.318Z,16.73
2019-02-26T15:52:55.898Z,12.20
2019-02-26T15:55:29.172Z,6.95
2019-02-26T15:58:03.069Z,12.82
2019-02-26T16:00:28.509Z,15.60
2019-02-26T16:02:59.371Z,12.88
2019-02-26T16:05:35.367Z,7.55
2019-02-26T16:08:07.674Z,17.00
2019-02-26T16:10:36.258Z,18.32
2019-02-26T16:13:05.152Z,13.80
2019-02-26T16:15:35.170Z,8.88
2019-02-26T16:18:03.856Z,19.80
2019-02-26T16:20:32.434Z,16.00
2019-02-26T16:23:01.022Z,11.05
2019-02-26T16:25:30.327Z,10.50
2019-02-26T16:27:59.354Z,11.75
2019-02-26T16:30:29.212Z,11.10
2019-02-26T16:32:57.808Z,12.28
2019-02-26T16:35:26.409Z,9.13
2019-02-26T16:37:55.146Z,10.35
2019-02-26T16:40:24.071Z,6.20
2019-02-26T16:42:52.741Z,13.62
2019-02-26T16:45:28.699Z,15.50
2019-02-26T16:47:57.632Z,12.13
2019-02-26T16:50:30.999Z,11.53
2019-02-26T16:53:00.359Z,8.98
2019-02-26T16:55:31.272Z,16.27
2019-02-26T16:58:02.595Z,20.55
2019-02-26T17:00:31.282Z,10.55
2019-02-26T17:03:00.955Z,15.00
2019-02-26T17:05:30.087Z,9.78
2019-02-26T17:07:59.152Z,13.58
2019-02-26T17:10:30.409Z,15.60
2019-02-26T17:13:01.909Z,14.68
2019-02-26T17:15:33.647Z,17.35
2019-02-26T17:18:02.417Z,11.75
2019-02-26T17:20:31.623Z,13.35
2019-02-26T17:23:00.529Z,19.07
2019-02-26T17:25:34.548Z,19.10
2019-02-26T17:28:00.947Z,21.48
2019-02-26T17:30:29.739Z,18.62
2019-02-26T17:32:58.834Z,35.15
2019-02-26T17:35:29.597Z,28.02
2019-02-26T17:37:58.482Z,28.65
2019-02-26T17:40:27.779Z,45.63
2019-02-26T17:42:56.852Z,33.85
2019-02-26T17:45:31.074Z,21.42
2019-02-26T17:47:59.992Z,24.90
2019-02-26T17:50:39.892Z,31.77
2019-02-26T17:53:08.901Z,42.78
2019-02-26T17:55:37.716Z,68.65
2019-02-26T17:58:09.862Z,77.03
2019-02-26T18:00:41.108Z,76.92
2019-02-26T18:03:10.096Z,44.85
2019-02-26T18:05:50.678Z,34.00
2019-02-26T18:08:10.334Z,31.77
2019-02-26T18:10:39.443Z,27.27
2019-02-26T18:13:08.526Z,27.87
2019-02-26T18:15:37.110Z,29.63
2019-02-26T18:18:05.795Z,32.23
2019-02-26T18:20:34.896Z,26.70
2019-02-26T18:23:03.678Z,22.52
2019-02-26T18:25:32.465Z,37.38
2019-02-26T18:28:01.483Z,34.80
2019-02-26T18:30:30.952Z,34.35
2019-02-26T18:33:00.118Z,26.50
2019-02-26T18:35:28.846Z,33.83
2019-02-26T18:37:57.737Z,26.42
2019-02-26T18:40:28.278Z,32.55
2019-02-26T18:43:00.566Z,24.02
2019-02-26T18:45:30.706Z,23.60
2019-02-26T18:48:02.677Z,24.95
2019-02-26T18:50:31.294Z,38.17
2019-02-26T18:55:37.133Z,25.92
2019-02-26T18:58:07.805Z,25.90
2019-02-26T19:00:36.901Z,23.90
2019-02-26T19:03:08.785Z,25.57
2019-02-26T19:05:37.935Z,22.98
2019-02-26T19:08:06.524Z,26.15
2019-02-26T19:10:35.438Z,27.85
2019-02-26T19:13:04.631Z,28.15
2019-02-26T19:15:34.548Z,42.60
2019-02-26T19:18:08.475Z,28.85
2019-02-26T19:20:38.555Z,30.37
2019-02-26T19:23:07.173Z,46.90
2019-02-26T19:25:36.402Z,29.07
2019-02-26T19:28:05.038Z,25.08
2019-02-26T19:30:36.791Z,28.55
2019-02-26T19:33:04.357Z,34.15
2019-02-26T19:35:40.157Z,18.98
2019-02-26T19:38:06.257Z,24.00
2019-02-26T19:43:28.820Z,27.50
2019-02-26T19:45:57.778Z,27.17
2019-02-26T19:48:30.470Z,20.40
2019-02-26T19:51:01.253Z,23.10
2019-02-26T19:53:34.456Z,20.43
2019-02-26T19:56:03.898Z,23.62
2019-02-26T19:58:32.481Z,20.62
2019-02-26T20:01:01.066Z,34.48
2019-02-26T20:03:39.583Z,39.65
2019-02-26T20:06:01.410Z,31.20
2019-02-26T20:08:29.989Z,25.75
2019-02-26T20:10:58.454Z,28.25
2019-02-26T20:13:27.367Z,36.35
2019-02-26T20:15:56.152Z,34.15
2019-02-26T20:18:26.173Z,38.70
2019-02-26T20:20:55.273Z,27.22
2019-02-26T20:23:24.243Z,37.25
2019-02-26T20:25:54.178Z,33.33
2019-02-26T20:28:22.649Z,40.95
2019-02-26T20:30:54.916Z,38.73
2019-02-26T20:33:23.604Z,36.00
2019-02-26T20:35:52.215Z,41.20
2019-02-26T20:38:22.763Z,53.55
2019-02-26T20:40:51.817Z,40.83
2019-02-26T20:43:21.316Z,40.25
2019-02-26T20:45:51.090Z,35.08
2019-02-26T20:48:20.755Z,40.17
2019-02-26T20:50:53.504Z,36.55
2019-02-26T20:53:21.875Z,55.77
2019-02-26T20:55:52.685Z,39.25
2019-02-26T20:58:22.035Z,54.77
2019-02-26T21:00:50.827Z,52.27
2019-02-26T21:03:23.623Z,35.73
2019-02-26T21:05:49.832Z,37.13
2019-02-26T21:08:20.559Z,44.53
2019-02-26T21:10:51.810Z,41.65
2019-02-26T21:13:20.701Z,38.95
2019-02-26T21:15:50.725Z,44.45
2019-02-26T21:18:19.302Z,43.02
2019-02-26T21:20:49.350Z,42.30
2019-02-26T21:23:21.879Z,37.65
2019-02-26T21:25:52.018Z,35.13
2019-02-26T21:28:20.619Z,38.65
2019-02-26T21:30:49.501Z,40.92
2019-02-26T21:33:18.382Z,35.88
2019-02-26T21:35:54.189Z,28.45
2019-02-26T21:38:17.190Z,32.83
2019-02-26T21:40:48.673Z,36.17
2019-02-26T21:43:16.093Z,27.50
2019-02-26T21:45:44.629Z,40.50
2019-02-26T21:48:13.364Z,40.00
2019-02-26T21:50:42.764Z,36.83
2019-02-26T21:53:15.447Z,31.80
2019-02-26T21:55:44.275Z,24.12
2019-02-26T21:58:14.896Z,22.55
2019-02-26T22:00:44.340Z,23.95
2019-02-26T22:03:13.058Z,33.55
2019-02-26T22:05:41.726Z,29.45
2019-02-26T22:08:10.637Z,31.12
2019-02-26T22:10:40.201Z,34.80
2019-02-26T22:13:09.539Z,31.35
2019-02-26T22:15:38.122Z,32.42
2019-02-26T22:18:06.806Z,30.48
2019-02-26T22:20:36.612Z,30.82
2019-02-26T22:23:05.510Z,27.07
2019-02-26T22:25:34.086Z,38.05
2019-02-26T22:28:08.820Z,39.85
2019-02-26T22:30:38.017Z,38.23
2019-02-26T22:33:07.982Z,34.75
2019-02-26T22:35:38.241Z,36.60
2019-02-26T22:38:06.948Z,35.70
2019-02-26T22:40:35.527Z,37.42
2019-02-26T22:43:04.112Z,69.82
2019-02-26T22:45:45.149Z,37.70
2019-02-26T22:48:14.190Z,35.08
2019-02-26T22:50:43.069Z,34.85
2019-02-26T22:53:11.652Z,33.15
2019-02-26T22:55:40.133Z,34.63
2019-02-26T22:58:08.716Z,40.20
2019-02-26T23:00:48.283Z,39.38
2019-02-26T23:03:15.951Z,30.08
2019-02-26T23:06:04.216Z,34.05
2019-02-26T23:08:33.053Z,33.13
2019-02-26T23:11:01.636Z,40.80
2019-02-26T23:13:31.881Z,27.20
2019-02-26T23:16:01.057Z,32.03
2019-02-26T23:18:31.051Z,30.00
2019-02-26T23:21:00.600Z,26.87
2019-02-26T23:23:29.268Z,31.90
2019-02-26T23:25:57.745Z,28.07
2019-02-26T23:28:26.331Z,40.60
2019-02-26T23:30:55.072Z,32.33
2019-02-26T23:33:23.905Z,28.12
2019-02-26T23:35:54.928Z,27.82
2019-02-26T23:38:22.702Z,36.48
2019-02-26T23:40:51.295Z,30.77
2019-02-26T23:43:20.082Z,29.02
2019-02-26T23:45:48.554Z,31.15
2019-02-26T23:48:17.146Z,36.05
2019-02-26T23:50:47.378Z,34.73
2019-02-26T23:53:15.955Z,44.27
2019-02-26T23:55:47.255Z,42.88
2019-02-26T23:58:14.761Z,43.40
